sensor_id;sensor_type;location;lat;lon;timestamp;P1;durP1;ratioP1;P2;durP2;ratioP2
18364;SDS011;9309;52.126;11.616;2023-05-14T00:00:00;11.53;;;6.67;;
18364;SDS011;9309;52.126;11.616;2023-05-14T00:02:28;6.63;;;5.80;;
18364;SDS011;9309;52.126;11.616;2023-05-14T00:04:54;5.93;;;5.43;;
18364;SDS011;9309;52.126;11.616;2023-05-14T00:07:21;6.03;;;4.93;;
18364;SDS011;9309;52.126;11.616;2023-05-14T00:09:47;5.87;;;4.73;;
18364;SDS011;9309;52.126;11.616;2023-05-14T00:12:14;5.10;;;4.33;;
18364;SDS011;9309;52.126;11.616;2023-05-14T00:14:40;6.07;;;4.60;;
18364;SDS011;9309;52.126;11.616;2023-05-14T00:17:07;8.13;;;4.40;;
18364;SDS011;9309;52.126;11.616;2023-05-14T00:19:35;5.90;;;5.00;;
18364;SDS011;9309;52.126;11.616;2023-05-14T00:22:05;6.00;;;4.73;;
18364;SDS011;9309;52.126;11.616;2023-05-14T00:24:32;5.70;;;4.23;;
18364;SDS011;9309;52.126;11.616;2023-05-14T00:26:59;4.33;;;3.93;;
18364;SDS011;9309;52.126;11.616;2023-05-14T00:29:26;6.50;;;4.57;;
18364;SDS011;9309;52.126;11.616;2023-05-14T00:31:52;3.87;;;3.53;;
18364;SDS011;9309;52.126;11.616;2023-05-14T00:34:20;4.40;;;4.00;;
18364;SDS011;9309;52.126;11.616;2023-05-14T00:36:49;4.43;;;4.13;;
18364;SDS011;9309;52.126;11.616;2023-05-14T00:39:16;7.53;;;4.30;;
18364;SDS011;9309;52.126;11.616;2023-05-14T00:41:43;3.83;;;3.63;;
18364;SDS011;9309;52.126;11.616;2023-05-14T00:44:09;5.63;;;4.23;;
18364;SDS011;9309;52.126;11.616;2023-05-14T00:46:36;4.67;;;3.83;;
18364;SDS011;9309;52.126;11.616;2023-05-14T00:49:02;3.93;;;3.70;;
18364;SDS011;9309;52.126;11.616;2023-05-14T00:51:29;9.57;;;4.57;;
18364;SDS011;9309;52.126;11.616;2023-05-14T00:53:57;5.93;;;4.03;;
18364;SDS011;9309;52.126;11.616;2023-05-14T00:56:24;4.53;;;4.23;;
18364;SDS011;9309;52.126;11.616;2023-05-14T00:58:53;5.03;;;3.80;;
18364;SDS011;9309;52.126;11.616;2023-05-14T01:01:19;4.77;;;4.37;;
18364;SDS011;9309;52.126;11.616;2023-05-14T01:03:46;4.40;;;4.00;;
18364;SDS011;9309;52.126;11.616;2023-05-14T01:06:14;3.20;;;3.00;;
18364;SDS011;9309;52.126;11.616;2023-05-14T01:08:49;4.40;;;4.07;;
18364;SDS011;9309;52.126;11.616;2023-05-14T01:11:25;4.53;;;4.17;;
18364;SDS011;9309;52.126;11.616;2023-05-14T01:13:58;5.03;;;4.63;;
18364;SDS011;9309;52.126;11.616;2023-05-14T01:16:33;4.43;;;4.13;;
18364;SDS011;9309;52.126;11.616;2023-05-14T01:19:02;4.97;;;4.57;;
18364;SDS011;9309;52.126;11.616;2023-05-14T01:21:35;4.83;;;4.37;;
18364;SDS011;9309;52.126;11.616;2023-05-14T01:24:02;4.50;;;4.10;;
18364;SDS011;9309;52.126;11.616;2023-05-14T01:26:29;4.10;;;3.77;;
18364;SDS011;9309;52.126;11.616;2023-05-14T01:28:58;6.20;;;4.60;;
18364;SDS011;9309;52.126;11.616;2023-05-14T01:31:28;4.63;;;4.23;;
18364;SDS011;9309;52.126;11.616;2023-05-14T01:33:58;5.00;;;4.60;;
18364;SDS011;9309;52.126;11.616;2023-05-14T01:36:27;4.70;;;4.30;;
18364;SDS011;9309;52.126;11.616;2023-05-14T01:38:56;5.97;;;5.20;;
18364;SDS011;9309;52.126;11.616;2023-05-14T01:41:24;5.13;;;4.63;;
18364;SDS011;9309;52.126;11.616;2023-05-14T01:43:51;4.60;;;4.17;;
18364;SDS011;9309;52.126;11.616;2023-05-14T01:46:18;7.87;;;4.73;;
18364;SDS011;9309;52.126;11.616;2023-05-14T01:48:48;5.53;;;4.13;;
18364;SDS011;9309;52.126;11.616;2023-05-14T01:51:14;5.00;;;4.47;;
18364;SDS011;9309;52.126;11.616;2023-05-14T01:53:41;5.13;;;4.67;;
18364;SDS011;9309;52.126;11.616;2023-05-14T01:56:09;5.97;;;4.67;;
18364;SDS011;9309;52.126;11.616;2023-05-14T01:58:36;4.87;;;4.37;;
18364;SDS011;9309;52.126;11.616;2023-05-14T02:01:03;6.87;;;5.07;;
18364;SDS011;9309;52.126;11.616;2023-05-14T02:03:30;6.00;;;5.50;;
18364;SDS011;9309;52.126;11.616;2023-05-14T02:05:57;6.43;;;4.63;;
18364;SDS011;9309;52.126;11.616;2023-05-14T02:08:24;7.03;;;5.10;;
18364;SDS011;9309;52.126;11.616;2023-05-14T02:10:52;5.27;;;4.77;;
18364;SDS011;9309;52.126;11.616;2023-05-14T02:13:20;5.67;;;5.10;;
18364;SDS011;9309;52.126;11.616;2023-05-14T02:15:48;4.83;;;4.40;;
18364;SDS011;9309;52.126;11.616;2023-05-14T02:18:14;7.67;;;4.57;;
18364;SDS011;9309;52.126;11.616;2023-05-14T02:20:41;5.97;;;4.77;;
18364;SDS011;9309;52.126;11.616;2023-05-14T02:23:08;5.43;;;5.00;;
18364;SDS011;9309;52.126;11.616;2023-05-14T02:25:35;6.37;;;4.60;;
18364;SDS011;9309;52.126;11.616;2023-05-14T02:28:02;7.13;;;4.87;;
18364;SDS011;9309;52.126;11.616;2023-05-14T02:30:30;4.90;;;4.40;;
18364;SDS011;9309;52.126;11.616;2023-05-14T02:32:57;10.13;;;5.03;;
18364;SDS011;9309;52.126;11.616;2023-05-14T02:35:24;7.50;;;4.80;;
18364;SDS011;9309;52.126;11.616;2023-05-14T02:37:50;5.87;;;5.00;;
18364;SDS011;9309;52.126;11.616;2023-05-14T02:40:18;5.07;;;4.60;;
18364;SDS011;9309;52.126;11.616;2023-05-14T02:42:45;7.27;;;5.00;;
18364;SDS011;9309;52.126;11.616;2023-05-14T02:45:11;7.20;;;5.13;;
18364;SDS011;9309;52.126;11.616;2023-05-14T02:47:39;5.20;;;4.70;;
18364;SDS011;9309;52.126;11.616;2023-05-14T02:50:07;7.23;;;4.90;;
18364;SDS011;9309;52.126;11.616;2023-05-14T02:52:35;7.50;;;5.77;;
18364;SDS011;9309;52.126;11.616;2023-05-14T02:55:02;5.77;;;4.93;;
18364;SDS011;9309;52.126;11.616;2023-05-14T02:57:29;5.83;;;4.70;;
18364;SDS011;9309;52.126;11.616;2023-05-14T02:59:56;4.83;;;4.53;;
18364;SDS011;9309;52.126;11.616;2023-05-14T03:02:22;7.70;;;4.83;;
18364;SDS011;9309;52.126;11.616;2023-05-14T03:04:50;6.93;;;5.30;;
18364;SDS011;9309;52.126;11.616;2023-05-14T03:07:17;6.57;;;5.40;;
18364;SDS011;9309;52.126;11.616;2023-05-14T03:09:44;9.07;;;4.90;;
18364;SDS011;9309;52.126;11.616;2023-05-14T03:12:11;6.30;;;5.03;;
18364;SDS011;9309;52.126;11.616;2023-05-14T03:14:38;7.07;;;5.40;;
18364;SDS011;9309;52.126;11.616;2023-05-14T03:17:05;7.80;;;5.40;;
18364;SDS011;9309;52.126;11.616;2023-05-14T03:19:31;6.17;;;4.80;;
18364;SDS011;9309;52.126;11.616;2023-05-14T03:22:00;6.63;;;5.30;;
18364;SDS011;9309;52.126;11.616;2023-05-14T03:24:27;5.73;;;5.27;;
18364;SDS011;9309;52.126;11.616;2023-05-14T03:26:53;6.30;;;5.13;;
18364;SDS011;9309;52.126;11.616;2023-05-14T03:29:20;6.13;;;5.53;;
18364;SDS011;9309;52.126;11.616;2023-05-14T03:31:47;5.00;;;4.60;;
18364;SDS011;9309;52.126;11.616;2023-05-14T03:34:14;5.47;;;4.40;;
18364;SDS011;9309;52.126;11.616;2023-05-14T03:36:41;5.97;;;5.37;;
18364;SDS011;9309;52.126;11.616;2023-05-14T03:39:09;5.73;;;5.23;;
18364;SDS011;9309;52.126;11.616;2023-05-14T03:41:39;6.13;;;4.97;;
18364;SDS011;9309;52.126;11.616;2023-05-14T03:44:06;6.43;;;5.60;;
18364;SDS011;9309;52.126;11.616;2023-05-14T03:46:32;5.57;;;5.07;;
18364;SDS011;9309;52.126;11.616;2023-05-14T03:49:00;5.80;;;4.90;;
18364;SDS011;9309;52.126;11.616;2023-05-14T03:51:26;6.70;;;5.00;;
18364;SDS011;9309;52.126;11.616;2023-05-14T03:53:55;6.30;;;5.10;;
18364;SDS011;9309;52.126;11.616;2023-05-14T03:56:23;5.53;;;4.93;;
18364;SDS011;9309;52.126;11.616;2023-05-14T03:58:51;7.80;;;4.90;;
18364;SDS011;9309;52.126;11.616;2023-05-14T04:01:18;6.50;;;5.10;;
18364;SDS011;9309;52.126;11.616;2023-05-14T04:03:45;5.57;;;4.60;;
18364;SDS011;9309;52.126;11.616;2023-05-14T04:06:11;6.40;;;5.03;;
18364;SDS011;9309;52.126;11.616;2023-05-14T04:08:38;6.57;;;5.40;;
18364;SDS011;9309;52.126;11.616;2023-05-14T04:11:05;5.43;;;4.93;;
18364;SDS011;9309;52.126;11.616;2023-05-14T04:13:33;5.67;;;5.13;;
18364;SDS011;9309;52.126;11.616;2023-05-14T04:16:00;8.57;;;5.67;;
18364;SDS011;9309;52.126;11.616;2023-05-14T04:18:27;7.27;;;5.20;;
18364;SDS011;9309;52.126;11.616;2023-05-14T04:20:58;5.97;;;5.47;;
18364;SDS011;9309;52.126;11.616;2023-05-14T04:23:25;7.03;;;6.10;;
18364;SDS011;9309;52.126;11.616;2023-05-14T04:25:52;6.90;;;5.90;;
18364;SDS011;9309;52.126;11.616;2023-05-14T04:28:18;9.30;;;5.70;;
18364;SDS011;9309;52.126;11.616;2023-05-14T04:30:46;5.90;;;5.30;;
18364;SDS011;9309;52.126;11.616;2023-05-14T04:33:13;6.07;;;5.13;;
18364;SDS011;9309;52.126;11.616;2023-05-14T04:35:40;8.77;;;6.07;;
18364;SDS011;9309;52.126;11.616;2023-05-14T04:38:07;6.47;;;5.10;;
18364;SDS011;9309;52.126;11.616;2023-05-14T04:40:34;5.27;;;4.83;;
18364;SDS011;9309;52.126;11.616;2023-05-14T04:43:00;5.77;;;5.17;;
18364;SDS011;9309;52.126;11.616;2023-05-14T04:45:27;7.57;;;5.57;;
18364;SDS011;9309;52.126;11.616;2023-05-14T04:47:55;7.23;;;5.20;;
18364;SDS011;9309;52.126;11.616;2023-05-14T04:50:22;8.73;;;5.10;;
18364;SDS011;9309;52.126;11.616;2023-05-14T04:52:48;6.33;;;5.73;;
18364;SDS011;9309;52.126;11.616;2023-05-14T04:55:15;7.57;;;5.57;;
18364;SDS011;9309;52.126;11.616;2023-05-14T04:57:41;8.23;;;6.20;;
18364;SDS011;9309;52.126;11.616;2023-05-14T05:00:09;5.90;;;5.07;;
18364;SDS011;9309;52.126;11.616;2023-05-14T05:02:37;5.27;;;4.77;;
18364;SDS011;9309;52.126;11.616;2023-05-14T05:05:05;7.23;;;5.53;;
18364;SDS011;9309;52.126;11.616;2023-05-14T05:07:32;6.63;;;5.87;;
18364;SDS011;9309;52.126;11.616;2023-05-14T05:09:59;6.07;;;5.40;;
18364;SDS011;9309;52.126;11.616;2023-05-14T05:12:25;6.77;;;5.23;;
18364;SDS011;9309;52.126;11.616;2023-05-14T05:14:54;5.87;;;5.40;;
18364;SDS011;9309;52.126;11.616;2023-05-14T05:17:21;6.37;;;5.07;;
18364;SDS011;9309;52.126;11.616;2023-05-14T05:19:47;5.30;;;4.90;;
18364;SDS011;9309;52.126;11.616;2023-05-14T05:22:15;9.10;;;6.23;;
18364;SDS011;9309;52.126;11.616;2023-05-14T05:24:42;9.07;;;5.03;;
18364;SDS011;9309;52.126;11.616;2023-05-14T05:27:09;5.40;;;4.87;;
18364;SDS011;9309;52.126;11.616;2023-05-14T05:29:35;7.97;;;6.10;;
18364;SDS011;9309;52.126;11.616;2023-05-14T05:32:02;8.43;;;5.30;;
18364;SDS011;9309;52.126;11.616;2023-05-14T05:34:29;8.30;;;5.30;;
18364;SDS011;9309;52.126;11.616;2023-05-14T05:36:56;6.40;;;4.87;;
18364;SDS011;9309;52.126;11.616;2023-05-14T05:39:31;7.57;;;5.77;;
18364;SDS011;9309;52.126;11.616;2023-05-14T05:41:58;5.40;;;4.90;;
18364;SDS011;9309;52.126;11.616;2023-05-14T05:44:26;6.17;;;5.40;;
18364;SDS011;9309;52.126;11.616;2023-05-14T05:46:52;8.57;;;6.03;;
18364;SDS011;9309;52.126;11.616;2023-05-14T05:49:21;9.17;;;5.00;;
18364;SDS011;9309;52.126;11.616;2023-05-14T05:51:47;5.13;;;4.67;;
18364;SDS011;9309;52.126;11.616;2023-05-14T05:54:14;6.77;;;5.00;;
18364;SDS011;9309;52.126;11.616;2023-05-14T05:56:42;7.33;;;5.73;;
18364;SDS011;9309;52.126;11.616;2023-05-14T05:59:09;6.20;;;5.43;;
18364;SDS011;9309;52.126;11.616;2023-05-14T06:01:35;6.23;;;5.33;;
18364;SDS011;9309;52.126;11.616;2023-05-14T06:04:04;8.10;;;5.43;;
18364;SDS011;9309;52.126;11.616;2023-05-14T06:06:31;6.47;;;5.13;;
18364;SDS011;9309;52.126;11.616;2023-05-14T06:08:57;5.20;;;4.70;;
18364;SDS011;9309;52.126;11.616;2023-05-14T06:11:25;7.57;;;5.07;;
18364;SDS011;9309;52.126;11.616;2023-05-14T06:13:54;5.83;;;5.27;;
18364;SDS011;9309;52.126;11.616;2023-05-14T06:16:20;6.17;;;5.57;;
18364;SDS011;9309;52.126;11.616;2023-05-14T06:18:47;8.57;;;5.50;;
18364;SDS011;9309;52.126;11.616;2023-05-14T06:21:14;6.00;;;5.43;;
18364;SDS011;9309;52.126;11.616;2023-05-14T06:23:40;5.63;;;5.10;;
18364;SDS011;9309;52.126;11.616;2023-05-14T06:26:07;5.50;;;5.00;;
18364;SDS011;9309;52.126;11.616;2023-05-14T06:28:33;5.93;;;5.00;;
18364;SDS011;9309;52.126;11.616;2023-05-14T06:31:01;6.67;;;5.40;;
18364;SDS011;9309;52.126;11.616;2023-05-14T06:33:28;7.03;;;5.17;;
18364;SDS011;9309;52.126;11.616;2023-05-14T06:35:55;8.17;;;6.17;;
18364;SDS011;9309;52.126;11.616;2023-05-14T06:38:22;7.90;;;5.10;;
18364;SDS011;9309;52.126;11.616;2023-05-14T06:40:49;5.60;;;5.10;;
18364;SDS011;9309;52.126;11.616;2023-05-14T06:43:15;8.83;;;5.20;;
18364;SDS011;9309;52.126;11.616;2023-05-14T06:45:42;5.73;;;4.63;;
18364;SDS011;9309;52.126;11.616;2023-05-14T06:48:10;5.93;;;5.00;;
18364;SDS011;9309;52.126;11.616;2023-05-14T06:50:37;6.30;;;5.00;;
18364;SDS011;9309;52.126;11.616;2023-05-14T06:53:03;7.33;;;5.03;;
18364;SDS011;9309;52.126;11.616;2023-05-14T06:55:30;5.77;;;5.13;;
18364;SDS011;9309;52.126;11.616;2023-05-14T06:57:57;7.60;;;5.90;;
18364;SDS011;9309;52.126;11.616;2023-05-14T07:00:23;8.80;;;5.20;;
18364;SDS011;9309;52.126;11.616;2023-05-14T07:02:50;5.63;;;4.77;;
18364;SDS011;9309;52.126;11.616;2023-05-14T07:05:18;5.60;;;5.10;;
18364;SDS011;9309;52.126;11.616;2023-05-14T07:07:45;6.03;;;5.27;;
18364;SDS011;9309;52.126;11.616;2023-05-14T07:10:11;8.03;;;5.37;;
18364;SDS011;9309;52.126;11.616;2023-05-14T07:12:38;5.97;;;5.40;;
18364;SDS011;9309;52.126;11.616;2023-05-14T07:15:05;5.90;;;5.40;;
18364;SDS011;9309;52.126;11.616;2023-05-14T07:17:33;7.23;;;5.50;;
18364;SDS011;9309;52.126;11.616;2023-05-14T07:19:59;6.10;;;5.03;;
18364;SDS011;9309;52.126;11.616;2023-05-14T07:22:28;6.03;;;5.30;;
18364;SDS011;9309;52.126;11.616;2023-05-14T07:24:54;5.70;;;5.20;;
18364;SDS011;9309;52.126;11.616;2023-05-14T07:27:21;7.83;;;5.50;;
18364;SDS011;9309;52.126;11.616;2023-05-14T07:29:48;6.57;;;5.60;;
18364;SDS011;9309;52.126;11.616;2023-05-14T07:32:14;10.17;;;5.30;;
18364;SDS011;9309;52.126;11.616;2023-05-14T07:34:41;8.03;;;5.40;;
18364;SDS011;9309;52.126;11.616;2023-05-14T07:37:08;5.90;;;4.73;;
18364;SDS011;9309;52.126;11.616;2023-05-14T07:39:36;7.57;;;5.30;;
18364;SDS011;9309;52.126;11.616;2023-05-14T07:42:03;6.17;;;5.00;;
18364;SDS011;9309;52.126;11.616;2023-05-14T07:44:30;6.13;;;4.87;;
18364;SDS011;9309;52.126;11.616;2023-05-14T07:46:56;6.43;;;4.70;;
18364;SDS011;9309;52.126;11.616;2023-05-14T07:49:23;6.20;;;5.17;;
18364;SDS011;9309;52.126;11.616;2023-05-14T07:51:50;7.10;;;5.03;;
18364;SDS011;9309;52.126;11.616;2023-05-14T07:54:16;5.60;;;5.07;;
18364;SDS011;9309;52.126;11.616;2023-05-14T07:56:44;6.03;;;5.17;;
18364;SDS011;9309;52.126;11.616;2023-05-14T07:59:11;6.80;;;4.97;;
18364;SDS011;9309;52.126;11.616;2023-05-14T08:01:37;7.17;;;5.80;;
18364;SDS011;9309;52.126;11.616;2023-05-14T08:04:04;5.97;;;5.10;;
18364;SDS011;9309;52.126;11.616;2023-05-14T08:06:31;5.87;;;4.63;;
18364;SDS011;9309;52.126;11.616;2023-05-14T08:08:58;5.27;;;4.80;;
18364;SDS011;9309;52.126;11.616;2023-05-14T08:11:24;6.33;;;5.00;;
18364;SDS011;9309;52.126;11.616;2023-05-14T08:13:52;6.07;;;5.43;;
18364;SDS011;9309;52.126;11.616;2023-05-14T08:16:19;7.13;;;5.40;;
18364;SDS011;9309;52.126;11.616;2023-05-14T08:18:46;5.20;;;4.70;;
18364;SDS011;9309;52.126;11.616;2023-05-14T08:21:13;6.47;;;5.70;;
18364;SDS011;9309;52.126;11.616;2023-05-14T08:23:39;5.87;;;4.70;;
18364;SDS011;9309;52.126;11.616;2023-05-14T08:26:06;8.57;;;5.20;;
18364;SDS011;9309;52.126;11.616;2023-05-14T08:28:33;8.23;;;5.37;;
18364;SDS011;9309;52.126;11.616;2023-05-14T08:31:01;7.27;;;4.73;;
18364;SDS011;9309;52.126;11.616;2023-05-14T08:33:27;5.47;;;4.87;;
18364;SDS011;9309;52.126;11.616;2023-05-14T08:35:54;5.10;;;4.70;;
18364;SDS011;9309;52.126;11.616;2023-05-14T08:38:22;5.20;;;4.70;;
18364;SDS011;9309;52.126;11.616;2023-05-14T08:40:50;7.70;;;4.87;;
18364;SDS011;9309;52.126;11.616;2023-05-14T08:43:22;6.57;;;5.00;;
18364;SDS011;9309;52.126;11.616;2023-05-14T08:45:52;5.67;;;4.57;;
18364;SDS011;9309;52.126;11.616;2023-05-14T08:48:24;4.70;;;4.30;;
18364;SDS011;9309;52.126;11.616;2023-05-14T08:50:53;5.70;;;4.50;;
18364;SDS011;9309;52.126;11.616;2023-05-14T08:53:21;4.27;;;3.90;;
18364;SDS011;9309;52.126;11.616;2023-05-14T08:55:48;3.43;;;3.20;;
18364;SDS011;9309;52.126;11.616;2023-05-14T08:58:16;3.60;;;3.40;;
18364;SDS011;9309;52.126;11.616;2023-05-14T09:00:43;4.80;;;3.40;;
18364;SDS011;9309;52.126;11.616;2023-05-14T09:03:10;3.87;;;3.13;;
18364;SDS011;9309;52.126;11.616;2023-05-14T09:05:39;2.77;;;2.60;;
18364;SDS011;9309;52.126;11.616;2023-05-14T09:08:06;3.00;;;2.80;;
18364;SDS011;9309;52.126;11.616;2023-05-14T09:10:33;3.35;;;3.15;;
18364;SDS011;9309;52.126;11.616;2023-05-14T09:13:00;3.10;;;2.90;;
18364;SDS011;9309;52.126;11.616;2023-05-14T09:15:27;2.45;;;2.35;;
18364;SDS011;9309;52.126;11.616;2023-05-14T09:17:55;2.80;;;2.60;;
18364;SDS011;9309;52.126;11.616;2023-05-14T09:20:22;2.60;;;2.40;;
18364;SDS011;9309;52.126;11.616;2023-05-14T09:22:52;2.17;;;2.08;;
18364;SDS011;9309;52.126;11.616;2023-05-14T09:25:25;2.63;;;2.25;;
18364;SDS011;9309;52.126;11.616;2023-05-14T09:27:52;2.47;;;2.28;;
18364;SDS011;9309;52.126;11.616;2023-05-14T09:30:19;2.17;;;2.08;;
18364;SDS011;9309;52.126;11.616;2023-05-14T09:32:46;2.55;;;2.35;;
18364;SDS011;9309;52.126;11.616;2023-05-14T09:35:15;4.50;;;2.40;;
18364;SDS011;9309;52.126;11.616;2023-05-14T09:37:44;3.90;;;2.53;;
18364;SDS011;9309;52.126;11.616;2023-05-14T09:40:13;2.25;;;2.10;;
18364;SDS011;9309;52.126;11.616;2023-05-14T09:42:41;2.88;;;2.67;;
18364;SDS011;9309;52.126;11.616;2023-05-14T09:45:08;2.50;;;1.88;;
18364;SDS011;9309;52.126;11.616;2023-05-14T09:47:35;2.10;;;2.00;;
18364;SDS011;9309;52.126;11.616;2023-05-14T09:50:02;2.72;;;2.33;;
18364;SDS011;9309;52.126;11.616;2023-05-14T09:52:29;3.53;;;2.85;;
18364;SDS011;9309;52.126;11.616;2023-05-14T09:54:56;3.15;;;2.58;;
18364;SDS011;9309;52.126;11.616;2023-05-14T09:57:24;2.10;;;2.00;;
18364;SDS011;9309;52.126;11.616;2023-05-14T09:59:51;1.95;;;1.85;;
18364;SDS011;9309;52.126;11.616;2023-05-14T10:02:21;4.57;;;2.20;;
18364;SDS011;9309;52.126;11.616;2023-05-14T10:04:49;2.35;;;2.15;;
18364;SDS011;9309;52.126;11.616;2023-05-14T10:07:20;3.25;;;2.15;;
18364;SDS011;9309;52.126;11.616;2023-05-14T10:09:48;2.40;;;2.30;;
18364;SDS011;9309;52.126;11.616;2023-05-14T10:12:19;3.05;;;2.00;;
18364;SDS011;9309;52.126;11.616;2023-05-14T10:14:49;2.85;;;1.95;;
18364;SDS011;9309;52.126;11.616;2023-05-14T10:17:21;2.00;;;2.00;;
18364;SDS011;9309;52.126;11.616;2023-05-14T10:19:53;1.88;;;1.77;;
18364;SDS011;9309;52.126;11.616;2023-05-14T10:22:22;2.03;;;1.92;;
18364;SDS011;9309;52.126;11.616;2023-05-14T10:24:50;2.03;;;1.92;;
18364;SDS011;9309;52.126;11.616;2023-05-14T10:27:18;1.90;;;1.80;;
18364;SDS011;9309;52.126;11.616;2023-05-14T10:29:51;2.38;;;2.20;;
18364;SDS011;9309;52.126;11.616;2023-05-14T10:32:20;2.33;;;2.13;;
18364;SDS011;9309;52.126;11.616;2023-05-14T10:34:48;2.05;;;1.80;;
18364;SDS011;9309;52.126;11.616;2023-05-14T10:37:15;9.15;;;2.17;;
18364;SDS011;9309;52.126;11.616;2023-05-14T10:39:44;1.73;;;1.63;;
18364;SDS011;9309;52.126;11.616;2023-05-14T10:42:12;1.90;;;1.80;;
18364;SDS011;9309;52.126;11.616;2023-05-14T10:44:46;2.38;;;2.15;;
18364;SDS011;9309;52.126;11.616;2023-05-14T10:47:15;5.15;;;2.17;;
18364;SDS011;9309;52.126;11.616;2023-05-14T10:49:43;2.00;;;1.90;;
18364;SDS011;9309;52.126;11.616;2023-05-14T10:52:14;2.15;;;2.05;;
18364;SDS011;9309;52.126;11.616;2023-05-14T10:54:44;1.80;;;1.70;;
18364;SDS011;9309;52.126;11.616;2023-05-14T10:57:16;2.75;;;1.70;;
18364;SDS011;9309;52.126;11.616;2023-05-14T10:59:43;1.70;;;1.60;;
18364;SDS011;9309;52.126;11.616;2023-05-14T11:02:19;4.63;;;1.48;;
18364;SDS011;9309;52.126;11.616;2023-05-14T11:04:54;1.85;;;1.80;;
18364;SDS011;9309;52.126;11.616;2023-05-14T11:07:23;1.55;;;1.55;;
18364;SDS011;9309;52.126;11.616;2023-05-14T11:09:52;1.50;;;1.50;;
18364;SDS011;9309;52.126;11.616;2023-05-14T11:12:22;1.98;;;1.98;;
18364;SDS011;9309;52.126;11.616;2023-05-14T11:14:48;2.03;;;2.03;;
18364;SDS011;9309;52.126;11.616;2023-05-14T11:17:16;2.10;;;2.00;;
18364;SDS011;9309;52.126;11.616;2023-05-14T11:19:44;2.95;;;1.80;;
18364;SDS011;9309;52.126;11.616;2023-05-14T11:22:11;3.30;;;1.77;;
18364;SDS011;9309;52.126;11.616;2023-05-14T11:24:38;1.70;;;1.60;;
18364;SDS011;9309;52.126;11.616;2023-05-14T11:27:06;1.98;;;1.88;;
18364;SDS011;9309;52.126;11.616;2023-05-14T11:29:33;2.20;;;2.10;;
18364;SDS011;9309;52.126;11.616;2023-05-14T11:32:00;2.15;;;2.03;;
18364;SDS011;9309;52.126;11.616;2023-05-14T11:34:27;1.83;;;1.83;;
18364;SDS011;9309;52.126;11.616;2023-05-14T11:36:55;1.90;;;1.90;;
18364;SDS011;9309;52.126;11.616;2023-05-14T11:39:22;1.77;;;1.65;;
18364;SDS011;9309;52.126;11.616;2023-05-14T11:41:49;1.80;;;1.77;;
18364;SDS011;9309;52.126;11.616;2023-05-14T11:44:16;3.15;;;2.30;;
18364;SDS011;9309;52.126;11.616;2023-05-14T11:46:52;1.85;;;1.80;;
18364;SDS011;9309;52.126;11.616;2023-05-14T11:49:19;1.73;;;1.73;;
18364;SDS011;9309;52.126;11.616;2023-05-14T11:51:46;1.83;;;1.83;;
18364;SDS011;9309;52.126;11.616;2023-05-14T11:54:14;1.55;;;1.55;;
18364;SDS011;9309;52.126;11.616;2023-05-14T11:56:41;2.00;;;1.90;;
18364;SDS011;9309;52.126;11.616;2023-05-14T11:59:09;2.10;;;2.00;;
18364;SDS011;9309;52.126;11.616;2023-05-14T12:01:36;1.92;;;1.92;;
18364;SDS011;9309;52.126;11.616;2023-05-14T12:04:03;1.90;;;1.80;;
18364;SDS011;9309;52.126;11.616;2023-05-14T12:06:30;2.90;;;2.50;;
18364;SDS011;9309;52.126;11.616;2023-05-14T12:08:57;9.45;;;2.00;;
18364;SDS011;9309;52.126;11.616;2023-05-14T12:11:30;1.85;;;1.75;;
18364;SDS011;9309;52.126;11.616;2023-05-14T12:13:57;2.22;;;2.05;;
18364;SDS011;9309;52.126;11.616;2023-05-14T12:16:28;3.92;;;1.73;;
18364;SDS011;9309;52.126;11.616;2023-05-14T12:18:58;1.85;;;1.75;;
18364;SDS011;9309;52.126;11.616;2023-05-14T12:21:25;1.80;;;1.77;;
18364;SDS011;9309;52.126;11.616;2023-05-14T12:23:55;1.85;;;1.75;;
18364;SDS011;9309;52.126;11.616;2023-05-14T12:26:23;1.95;;;1.95;;
18364;SDS011;9309;52.126;11.616;2023-05-14T12:28:57;1.73;;;1.70;;
18364;SDS011;9309;52.126;11.616;2023-05-14T12:31:28;1.70;;;1.65;;
18364;SDS011;9309;52.126;11.616;2023-05-14T12:33:55;1.83;;;1.83;;
18364;SDS011;9309;52.126;11.616;2023-05-14T12:36:22;1.80;;;1.80;;
18364;SDS011;9309;52.126;11.616;2023-05-14T12:38:49;1.70;;;1.70;;
18364;SDS011;9309;52.126;11.616;2023-05-14T12:41:16;2.33;;;1.60;;
18364;SDS011;9309;52.126;11.616;2023-05-14T12:43:43;1.60;;;1.60;;
18364;SDS011;9309;52.126;11.616;2023-05-14T12:46:11;2.38;;;2.13;;
18364;SDS011;9309;52.126;11.616;2023-05-14T12:48:38;1.33;;;1.33;;
18364;SDS011;9309;52.126;11.616;2023-05-14T12:51:04;1.95;;;1.85;;
18364;SDS011;9309;52.126;11.616;2023-05-14T12:53:31;2.25;;;2.15;;
18364;SDS011;9309;52.126;11.616;2023-05-14T12:55:58;1.90;;;1.80;;
18364;SDS011;9309;52.126;11.616;2023-05-14T12:58:25;1.75;;;1.65;;
18364;SDS011;9309;52.126;11.616;2023-05-14T13:00:52;1.95;;;1.85;;
18364;SDS011;9309;52.126;11.616;2023-05-14T13:03:20;2.05;;;1.85;;
18364;SDS011;9309;52.126;11.616;2023-05-14T13:05:46;2.13;;;2.03;;
18364;SDS011;9309;52.126;11.616;2023-05-14T13:08:13;1.95;;;1.85;;
18364;SDS011;9309;52.126;11.616;2023-05-14T13:10:41;3.03;;;2.00;;
18364;SDS011;9309;52.126;11.616;2023-05-14T13:13:08;1.77;;;1.67;;
18364;SDS011;9309;52.126;11.616;2023-05-14T13:15:36;1.83;;;1.75;;
18364;SDS011;9309;52.126;11.616;2023-05-14T13:18:03;1.70;;;1.60;;
18364;SDS011;9309;52.126;11.616;2023-05-14T13:20:31;1.83;;;1.73;;
18364;SDS011;9309;52.126;11.616;2023-05-14T13:22:58;1.90;;;1.80;;
18364;SDS011;9309;52.126;11.616;2023-05-14T13:25:24;2.15;;;1.80;;
18364;SDS011;9309;52.126;11.616;2023-05-14T13:30:18;1.92;;;1.83;;
18364;SDS011;9309;52.126;11.616;2023-05-14T13:32:46;1.73;;;1.73;;
18364;SDS011;9309;52.126;11.616;2023-05-14T13:35:13;1.92;;;1.83;;
18364;SDS011;9309;52.126;11.616;2023-05-14T13:37:41;1.75;;;1.75;;
18364;SDS011;9309;52.126;11.616;2023-05-14T13:40:08;2.00;;;1.90;;
18364;SDS011;9309;52.126;11.616;2023-05-14T13:42:36;1.90;;;1.90;;
18364;SDS011;9309;52.126;11.616;2023-05-14T13:45:04;5.85;;;2.85;;
18364;SDS011;9309;52.126;11.616;2023-05-14T13:50:00;4.38;;;2.45;;
18364;SDS011;9309;52.126;11.616;2023-05-14T13:52:27;2.55;;;2.33;;
18364;SDS011;9309;52.126;11.616;2023-05-14T13:54:55;1.98;;;1.90;;
18364;SDS011;9309;52.126;11.616;2023-05-14T13:57:22;1.67;;;1.58;;
18364;SDS011;9309;52.126;11.616;2023-05-14T13:59:48;2.08;;;1.98;;
18364;SDS011;9309;52.126;11.616;2023-05-14T14:02:15;1.92;;;1.83;;
18364;SDS011;9309;52.126;11.616;2023-05-14T14:04:42;3.15;;;1.88;;
18364;SDS011;9309;52.126;11.616;2023-05-14T14:07:08;1.77;;;1.67;;
18364;SDS011;9309;52.126;11.616;2023-05-14T14:09:35;2.25;;;2.15;;
18364;SDS011;9309;52.126;11.616;2023-05-14T14:12:03;2.00;;;1.92;;
18364;SDS011;9309;52.126;11.616;2023-05-14T14:14:31;2.78;;;2.03;;
18364;SDS011;9309;52.126;11.616;2023-05-14T14:16:57;1.88;;;1.85;;
18364;SDS011;9309;52.126;11.616;2023-05-14T14:19:24;4.20;;;2.22;;
18364;SDS011;9309;52.126;11.616;2023-05-14T14:21:51;2.03;;;1.95;;
18364;SDS011;9309;52.126;11.616;2023-05-14T14:24:17;2.47;;;2.30;;
18364;SDS011;9309;52.126;11.616;2023-05-14T14:26:44;2.33;;;2.17;;
18364;SDS011;9309;52.126;11.616;2023-05-14T14:29:12;1.98;;;1.88;;
18364;SDS011;9309;52.126;11.616;2023-05-14T14:31:39;2.20;;;2.10;;
18364;SDS011;9309;52.126;11.616;2023-05-14T14:34:05;2.47;;;2.30;;
18364;SDS011;9309;52.126;11.616;2023-05-14T14:36:32;2.08;;;1.92;;
18364;SDS011;9309;52.126;11.616;2023-05-14T14:38:59;2.22;;;2.05;;
18364;SDS011;9309;52.126;11.616;2023-05-14T14:41:25;2.60;;;2.20;;
18364;SDS011;9309;52.126;11.616;2023-05-14T14:43:52;2.13;;;2.10;;
18364;SDS011;9309;52.126;11.616;2023-05-14T14:46:20;2.47;;;2.28;;
18364;SDS011;9309;52.126;11.616;2023-05-14T14:48:46;2.40;;;2.30;;
18364;SDS011;9309;52.126;11.616;2023-05-14T14:51:13;2.28;;;2.08;;
18364;SDS011;9309;52.126;11.616;2023-05-14T14:53:40;3.20;;;2.08;;